Lowell, Wisconsin
Current Conditions -  °F | °C
As of 6:15 AM on Sunday 23 Nov 2014 (Local Time) from KUNU Reporting Station
Haze Haze  
Wind Chill: 42°   Ceiling: 200
Heat Index: 47°   Visibility: 1.7mi
Dew Point: 46°   Wind: 10mph
Humidity: 98%   Direction: 170°S
Pressure: 29.67"   Gusts: 17mph
Location:  43.34°N, 88.82°W
Report Text: KUNU 231215Z AUTO 17009G15KT 1 3/4SM BR OVC002 08/08 A2967 RMK AO2 T00810078
Loading
Personal Weather Stations






























Interactive Weather Map New forecast layout! Learn more

10-Day Weather Forecast

Advertisements
Track Severe Weather on mobile